sensor_id;sensor_type;location;lat;lon;timestamp;pressure;altitude;pressure_sealevel;temperature;humidity
55733;BME280;41637;52.364;9.910;2023-02-15T00:01:55;102271.14;;;0.09;99.53
55733;BME280;41637;52.364;9.910;2023-02-15T00:04:24;102266.20;;;0.07;99.66
55733;BME280;41637;52.364;9.910;2023-02-15T00:06:51;102263.48;;;0.05;99.57
55733;BME280;41637;52.364;9.910;2023-02-15T00:09:18;102267.89;;;0.04;99.69
55733;BME280;41637;52.364;9.910;2023-02-15T00:11:45;102264.02;;;0.01;99.57
55733;BME280;41637;52.364;9.910;2023-02-15T00:14:22;102264.14;;;0.02;99.98
55733;BME280;41637;52.364;9.910;2023-02-15T00:16:51;102262.70;;;0.03;99.99
55733;BME280;41637;52.364;9.910;2023-02-15T00:19:20;102260.21;;;0.04;99.98
55733;BME280;41637;52.364;9.910;2023-02-15T00:21:48;102258.01;;;0.07;100.00
55733;BME280;41637;52.364;9.910;2023-02-15T00:24:16;102256.21;;;0.08;100.00
55733;BME280;41637;52.364;9.910;2023-02-15T00:26:44;102254.20;;;0.10;100.00
55733;BME280;41637;52.364;9.910;2023-02-15T00:29:13;102251.04;;;0.11;100.00
55733;BME280;41637;52.364;9.910;2023-02-15T00:31:40;102250.49;;;0.11;100.00
55733;BME280;41637;52.364;9.910;2023-02-15T00:34:20;102250.17;;;0.11;100.00
55733;BME280;41637;52.364;9.910;2023-02-15T00:36:47;102245.67;;;0.10;99.99
55733;BME280;41637;52.364;9.910;2023-02-15T00:39:15;102243.69;;;0.12;100.00
55733;BME280;41637;52.364;9.910;2023-02-15T00:41:42;102241.73;;;0.13;100.00
55733;BME280;41637;52.364;9.910;2023-02-15T00:44:09;102241.58;;;0.12;100.00
55733;BME280;41637;52.364;9.910;2023-02-15T00:46:36;102237.04;;;0.13;100.00
55733;BME280;41637;52.364;9.910;2023-02-15T00:49:03;102233.43;;;0.15;100.00
55733;BME280;41637;52.364;9.910;2023-02-15T00:51:43;102228.79;;;0.18;100.00
55733;BME280;41637;52.364;9.910;2023-02-15T00:54:10;102225.52;;;0.21;100.00
55733;BME280;41637;52.364;9.910;2023-02-15T00:56:36;102222.23;;;0.25;100.00
55733;BME280;41637;52.364;9.910;2023-02-15T00:59:03;102222.60;;;0.28;100.00
55733;BME280;41637;52.364;9.910;2023-02-15T01:01:30;102222.95;;;0.31;100.00
55733;BME280;41637;52.364;9.910;2023-02-15T01:03:57;102221.39;;;0.31;100.00
55733;BME280;41637;52.364;9.910;2023-02-15T01:06:24;102220.34;;;0.32;100.00
55733;BME280;41637;52.364;9.910;2023-02-15T01:08:51;102217.13;;;0.33;100.00
55733;BME280;41637;52.364;9.910;2023-02-15T01:11:20;102217.54;;;0.36;100.00
55733;BME280;41637;52.364;9.910;2023-02-15T01:13:55;102215.59;;;0.36;100.00
55733;BME280;41637;52.364;9.910;2023-02-15T01:16:24;102220.22;;;0.38;100.00
55733;BME280;41637;52.364;9.910;2023-02-15T01:18:52;102220.20;;;0.34;100.00
55733;BME280;41637;52.364;9.910;2023-02-15T01:21:20;102217.65;;;0.30;99.85
55733;BME280;41637;52.364;9.910;2023-02-15T01:23:48;102215.27;;;0.24;99.39
55733;BME280;41637;52.364;9.910;2023-02-15T01:26:15;102219.19;;;0.19;99.31
55733;BME280;41637;52.364;9.910;2023-02-15T01:28:42;102218.60;;;0.17;99.42
55733;BME280;41637;52.364;9.910;2023-02-15T01:31:12;102214.48;;;0.15;99.87
55733;BME280;41637;52.364;9.910;2023-02-15T01:33:39;102215.96;;;0.14;99.95
55733;BME280;41637;52.364;9.910;2023-02-15T01:36:07;102214.77;;;0.13;99.99
55733;BME280;41637;52.364;9.910;2023-02-15T01:38:35;102214.25;;;0.13;100.00
55733;BME280;41637;52.364;9.910;2023-02-15T01:41:02;102210.83;;;0.12;100.00
55733;BME280;41637;52.364;9.910;2023-02-15T01:43:57;102211.84;;;0.12;100.00
55733;BME280;41637;52.364;9.910;2023-02-15T01:49:00;102201.73;;;0.13;100.00
55733;BME280;41637;52.364;9.910;2023-02-15T01:51:30;102198.61;;;0.12;100.00
55733;BME280;41637;52.364;9.910;2023-02-15T01:54:15;102197.73;;;0.13;100.00
55733;BME280;41637;52.364;9.910;2023-02-15T01:56:44;102197.38;;;0.13;99.99
55733;BME280;41637;52.364;9.910;2023-02-15T01:59:16;102191.69;;;0.12;100.00
55733;BME280;41637;52.364;9.910;2023-02-15T02:01:43;102190.00;;;0.11;99.98
55733;BME280;41637;52.364;9.910;2023-02-15T02:04:16;102187.73;;;0.10;100.00
55733;BME280;41637;52.364;9.910;2023-02-15T02:06:46;102184.33;;;0.09;100.00
55733;BME280;41637;52.364;9.910;2023-02-15T02:09:14;102184.72;;;0.08;100.00
55733;BME280;41637;52.364;9.910;2023-02-15T02:11:45;102180.83;;;0.06;99.98
55733;BME280;41637;52.364;9.910;2023-02-15T02:14:12;102176.21;;;0.04;99.89
55733;BME280;41637;52.364;9.910;2023-02-15T02:16:48;102165.98;;;-0.01;99.66
55733;BME280;41637;52.364;9.910;2023-02-15T02:27:47;102157.55;;;-0.11;100.00
55733;BME280;41637;52.364;9.910;2023-02-15T02:33:04;102157.29;;;-0.16;99.97
55733;BME280;41637;52.364;9.910;2023-02-15T02:35:44;102154.23;;;-0.17;99.99
55733;BME280;41637;52.364;9.910;2023-02-15T02:40:55;102152.07;;;-0.20;100.00
55733;BME280;41637;52.364;9.910;2023-02-15T02:43:32;102149.84;;;-0.21;100.00
55733;BME280;41637;52.364;9.910;2023-02-15T02:46:08;102141.64;;;-0.20;100.00
55733;BME280;41637;52.364;9.910;2023-02-15T02:48:38;102138.39;;;-0.17;100.00
55733;BME280;41637;52.364;9.910;2023-02-15T02:51:05;102138.14;;;-0.15;100.00
55733;BME280;41637;52.364;9.910;2023-02-15T02:53:33;102134.46;;;-0.11;100.00
55733;BME280;41637;52.364;9.910;2023-02-15T02:56:16;102132.66;;;-0.06;100.00
55733;BME280;41637;52.364;9.910;2023-02-15T02:59:23;102130.60;;;0.05;100.00
55733;BME280;41637;52.364;9.910;2023-02-15T03:01:59;102125.94;;;0.15;100.00
55733;BME280;41637;52.364;9.910;2023-02-15T03:04:36;102119.83;;;0.23;100.00
55733;BME280;41637;52.364;9.910;2023-02-15T03:07:07;102116.09;;;0.28;100.00
55733;BME280;41637;52.364;9.910;2023-02-15T03:09:45;102115.12;;;0.34;100.00
55733;BME280;41637;52.364;9.910;2023-02-15T03:14:52;102112.29;;;0.46;100.00
55733;BME280;41637;52.364;9.910;2023-02-15T03:17:22;102109.42;;;0.51;100.00
55733;BME280;41637;52.364;9.910;2023-02-15T03:19:52;102103.84;;;0.55;100.00
55733;BME280;41637;52.364;9.910;2023-02-15T03:22:28;102103.05;;;0.60;100.00
55733;BME280;41637;52.364;9.910;2023-02-15T03:25:01;102109.82;;;0.64;100.00
55733;BME280;41637;52.364;9.910;2023-02-15T03:27:38;102102.08;;;0.70;100.00
55733;BME280;41637;52.364;9.910;2023-02-15T03:30:07;102100.45;;;0.74;100.00
55733;BME280;41637;52.364;9.910;2023-02-15T03:32:39;102102.47;;;0.79;100.00
55733;BME280;41637;52.364;9.910;2023-02-15T03:35:16;102097.81;;;0.82;100.00
55733;BME280;41637;52.364;9.910;2023-02-15T03:37:48;102094.85;;;0.86;100.00
55733;BME280;41637;52.364;9.910;2023-02-15T03:40:21;102096.18;;;0.90;100.00
55733;BME280;41637;52.364;9.910;2023-02-15T03:43:17;102094.17;;;0.95;100.00
55733;BME280;41637;52.364;9.910;2023-02-15T03:45:48;102089.54;;;0.97;100.00
55733;BME280;41637;52.364;9.910;2023-02-15T03:48:25;102088.48;;;1.01;100.00
55733;BME280;41637;52.364;9.910;2023-02-15T03:50:56;102087.91;;;1.05;100.00
55733;BME280;41637;52.364;9.910;2023-02-15T03:53:45;102086.70;;;1.08;100.00
55733;BME280;41637;52.364;9.910;2023-02-15T03:56:13;102083.22;;;1.12;100.00
55733;BME280;41637;52.364;9.910;2023-02-15T03:58:43;102091.45;;;1.14;100.00
55733;BME280;41637;52.364;9.910;2023-02-15T04:01:54;102090.61;;;1.17;100.00
55733;BME280;41637;52.364;9.910;2023-02-15T04:04:36;102095.91;;;1.19;100.00
55733;BME280;41637;52.364;9.910;2023-02-15T04:07:06;102098.61;;;1.21;100.00
55733;BME280;41637;52.364;9.910;2023-02-15T04:09:33;102098.07;;;1.21;100.00
55733;BME280;41637;52.364;9.910;2023-02-15T04:12:19;102095.23;;;1.22;100.00
55733;BME280;41637;52.364;9.910;2023-02-15T04:14:47;102092.05;;;1.23;100.00
55733;BME280;41637;52.364;9.910;2023-02-15T04:17:32;102088.86;;;1.24;100.00
55733;BME280;41637;52.364;9.910;2023-02-15T04:19:59;102083.89;;;1.26;100.00
55733;BME280;41637;52.364;9.910;2023-02-15T04:22:45;102086.40;;;1.28;100.00
55733;BME280;41637;52.364;9.910;2023-02-15T04:25:30;102085.80;;;1.29;100.00
55733;BME280;41637;52.364;9.910;2023-02-15T04:27:57;102081.54;;;1.31;100.00
55733;BME280;41637;52.364;9.910;2023-02-15T04:30:25;102075.91;;;1.32;100.00
55733;BME280;41637;52.364;9.910;2023-02-15T04:32:53;102070.95;;;1.33;100.00
55733;BME280;41637;52.364;9.910;2023-02-15T04:35:21;102075.25;;;1.34;100.00
55733;BME280;41637;52.364;9.910;2023-02-15T04:37:48;102069.16;;;1.34;100.00
55733;BME280;41637;52.364;9.910;2023-02-15T04:40:16;102064.70;;;1.33;100.00
55733;BME280;41637;52.364;9.910;2023-02-15T04:42:47;102065.20;;;1.33;100.00
55733;BME280;41637;52.364;9.910;2023-02-15T04:45:15;102067.15;;;1.33;100.00
55733;BME280;41637;52.364;9.910;2023-02-15T04:47:43;102068.86;;;1.33;100.00
55733;BME280;41637;52.364;9.910;2023-02-15T04:50:09;102069.02;;;1.34;100.00
55733;BME280;41637;52.364;9.910;2023-02-15T04:52:36;102062.20;;;1.34;100.00
55733;BME280;41637;52.364;9.910;2023-02-15T04:55:04;102062.03;;;1.34;100.00
55733;BME280;41637;52.364;9.910;2023-02-15T04:57:34;102061.27;;;1.35;100.00
55733;BME280;41637;52.364;9.910;2023-02-15T05:00:01;102061.73;;;1.36;100.00
55733;BME280;41637;52.364;9.910;2023-02-15T05:02:29;102059.02;;;1.38;100.00
55733;BME280;41637;52.364;9.910;2023-02-15T05:04:56;102058.48;;;1.38;100.00
55733;BME280;41637;52.364;9.910;2023-02-15T05:07:23;102056.05;;;1.38;100.00
55733;BME280;41637;52.364;9.910;2023-02-15T05:09:50;102048.01;;;1.39;100.00
55733;BME280;41637;52.364;9.910;2023-02-15T05:12:17;102050.80;;;1.39;100.00
55733;BME280;41637;52.364;9.910;2023-02-15T05:14:44;102046.11;;;1.38;100.00
55733;BME280;41637;52.364;9.910;2023-02-15T05:17:11;102042.50;;;1.37;100.00
55733;BME280;41637;52.364;9.910;2023-02-15T05:19:38;102041.13;;;1.37;100.00
55733;BME280;41637;52.364;9.910;2023-02-15T05:22:05;102038.72;;;1.36;100.00
55733;BME280;41637;52.364;9.910;2023-02-15T05:24:32;102041.64;;;1.37;100.00
55733;BME280;41637;52.364;9.910;2023-02-15T05:27:18;102045.00;;;1.36;100.00
55733;BME280;41637;52.364;9.910;2023-02-15T05:30:04;102047.77;;;1.37;100.00
55733;BME280;41637;52.364;9.910;2023-02-15T05:32:32;102047.40;;;1.37;100.00
55733;BME280;41637;52.364;9.910;2023-02-15T05:34:59;102050.31;;;1.38;100.00
55733;BME280;41637;52.364;9.910;2023-02-15T05:37:27;102048.49;;;1.39;100.00
55733;BME280;41637;52.364;9.910;2023-02-15T05:39:54;102050.31;;;1.41;100.00
55733;BME280;41637;52.364;9.910;2023-02-15T05:42:22;102044.34;;;1.42;100.00
55733;BME280;41637;52.364;9.910;2023-02-15T05:44:49;102047.34;;;1.41;99.94
55733;BME280;41637;52.364;9.910;2023-02-15T05:47:15;102052.23;;;1.41;99.77
55733;BME280;41637;52.364;9.910;2023-02-15T05:49:42;102045.84;;;1.40;99.73
55733;BME280;41637;52.364;9.910;2023-02-15T05:52:09;102045.90;;;1.39;99.47
55733;BME280;41637;52.364;9.910;2023-02-15T05:54:39;102039.13;;;1.38;99.56
55733;BME280;41637;52.364;9.910;2023-02-15T05:57:05;102041.71;;;1.39;99.84
55733;BME280;41637;52.364;9.910;2023-02-15T05:59:32;102041.67;;;1.40;99.49
55733;BME280;41637;52.364;9.910;2023-02-15T06:01:59;102039.27;;;1.39;99.37
55733;BME280;41637;52.364;9.910;2023-02-15T06:04:26;102039.42;;;1.39;99.49
55733;BME280;41637;52.364;9.910;2023-02-15T06:06:53;102034.21;;;1.39;99.11
55733;BME280;41637;52.364;9.910;2023-02-15T06:09:20;102037.01;;;1.39;99.02
55733;BME280;41637;52.364;9.910;2023-02-15T06:11:49;102036.20;;;1.38;99.03
55733;BME280;41637;52.364;9.910;2023-02-15T06:14:17;102035.66;;;1.38;98.92
55733;BME280;41637;52.364;9.910;2023-02-15T06:16:44;102036.79;;;1.37;98.60
55733;BME280;41637;52.364;9.910;2023-02-15T06:19:11;102036.34;;;1.35;98.72
55733;BME280;41637;52.364;9.910;2023-02-15T06:21:38;102035.91;;;1.33;98.48
55733;BME280;41637;52.364;9.910;2023-02-15T06:24:07;102030.55;;;1.33;98.47
55733;BME280;41637;52.364;9.910;2023-02-15T06:26:38;102030.27;;;1.35;98.53
55733;BME280;41637;52.364;9.910;2023-02-15T06:29:05;102030.42;;;1.38;98.61
55733;BME280;41637;52.364;9.910;2023-02-15T06:31:34;102030.05;;;1.42;98.53
55733;BME280;41637;52.364;9.910;2023-02-15T06:34:01;102029.36;;;1.45;98.13
55733;BME280;41637;52.364;9.910;2023-02-15T06:36:28;102032.52;;;1.48;97.85
55733;BME280;41637;52.364;9.910;2023-02-15T06:38:56;102034.15;;;1.50;97.60
55733;BME280;41637;52.364;9.910;2023-02-15T06:41:23;102032.84;;;1.52;97.60
55733;BME280;41637;52.364;9.910;2023-02-15T06:43:50;102030.69;;;1.53;97.20
55733;BME280;41637;52.364;9.910;2023-02-15T06:46:17;102025.77;;;1.53;97.15
55733;BME280;41637;52.364;9.910;2023-02-15T06:48:44;102024.91;;;1.53;96.92
55733;BME280;41637;52.364;9.910;2023-02-15T06:51:11;102023.23;;;1.52;96.76
55733;BME280;41637;52.364;9.910;2023-02-15T06:53:38;102025.29;;;1.52;96.51
55733;BME280;41637;52.364;9.910;2023-02-15T06:56:09;102020.09;;;1.52;96.15
55733;BME280;41637;52.364;9.910;2023-02-15T06:58:39;102016.83;;;1.54;96.19
55733;BME280;41637;52.364;9.910;2023-02-15T07:01:07;102021.98;;;1.56;96.02
55733;BME280;41637;52.364;9.910;2023-02-15T07:03:35;102021.48;;;1.59;95.99
55733;BME280;41637;52.364;9.910;2023-02-15T07:06:03;102018.51;;;1.62;95.81
55733;BME280;41637;52.364;9.910;2023-02-15T07:08:36;102015.19;;;1.65;95.73
55733;BME280;41637;52.364;9.910;2023-02-15T07:11:04;102013.52;;;1.67;95.57
55733;BME280;41637;52.364;9.910;2023-02-15T07:13:55;102013.59;;;1.69;95.02
55733;BME280;41637;52.364;9.910;2023-02-15T07:16:22;102013.73;;;1.73;95.18
55733;BME280;41637;52.364;9.910;2023-02-15T07:18:49;102017.55;;;1.76;94.94
55733;BME280;41637;52.364;9.910;2023-02-15T07:21:16;102020.20;;;1.79;94.61
55733;BME280;41637;52.364;9.910;2023-02-15T07:23:43;102023.14;;;1.82;94.44
55733;BME280;41637;52.364;9.910;2023-02-15T07:26:10;102022.43;;;1.86;94.57
55733;BME280;41637;52.364;9.910;2023-02-15T07:28:37;102023.64;;;1.89;94.41
55733;BME280;41637;52.364;9.910;2023-02-15T07:31:04;102026.50;;;1.91;93.72
55733;BME280;41637;52.364;9.910;2023-02-15T07:33:32;102020.17;;;1.89;93.34
55733;BME280;41637;52.364;9.910;2023-02-15T07:36:01;102024.59;;;1.88;93.21
55733;BME280;41637;52.364;9.910;2023-02-15T07:38:35;102025.78;;;1.85;92.79
55733;BME280;41637;52.364;9.910;2023-02-15T07:41:10;102021.78;;;1.85;92.86
55733;BME280;41637;52.364;9.910;2023-02-15T07:43:40;102021.34;;;1.86;92.82
55733;BME280;41637;52.364;9.910;2023-02-15T07:46:13;102024.80;;;1.87;92.51
55733;BME280;41637;52.364;9.910;2023-02-15T07:48:41;102028.68;;;1.89;92.37
55733;BME280;41637;52.364;9.910;2023-02-15T07:51:09;102027.59;;;1.93;92.45
55733;BME280;41637;52.364;9.910;2023-02-15T07:53:37;102026.17;;;1.97;92.00
55733;BME280;41637;52.364;9.910;2023-02-15T07:56:07;102029.25;;;2.01;91.77
55733;BME280;41637;52.364;9.910;2023-02-15T07:58:36;102029.46;;;2.07;91.45
55733;BME280;41637;52.364;9.910;2023-02-15T08:01:26;102030.01;;;2.12;91.30
55733;BME280;41637;52.364;9.910;2023-02-15T08:03:53;102027.13;;;2.17;90.97
55733;BME280;41637;52.364;9.910;2023-02-15T08:06:22;102026.84;;;2.22;90.67
55733;BME280;41637;52.364;9.910;2023-02-15T08:08:49;102021.43;;;2.28;90.99
55733;BME280;41637;52.364;9.910;2023-02-15T08:11:19;102019.96;;;2.35;90.77
55733;BME280;41637;52.364;9.910;2023-02-15T08:14:00;102010.25;;;2.43;90.61
55733;BME280;41637;52.364;9.910;2023-02-15T08:16:42;102008.39;;;2.54;90.61
55733;BME280;41637;52.364;9.910;2023-02-15T08:19:19;102007.03;;;2.62;90.61
55733;BME280;41637;52.364;9.910;2023-02-15T08:21:49;101998.27;;;2.72;90.47
55733;BME280;41637;52.364;9.910;2023-02-15T08:24:18;101992.80;;;2.81;90.40
55733;BME280;41637;52.364;9.910;2023-02-15T08:26:46;101988.70;;;2.88;89.89
55733;BME280;41637;52.364;9.910;2023-02-15T08:29:15;101991.75;;;2.93;88.84
55733;BME280;41637;52.364;9.910;2023-02-15T08:31:42;101990.07;;;2.95;88.17
55733;BME280;41637;52.364;9.910;2023-02-15T08:34:11;101987.88;;;2.99;88.20
55733;BME280;41637;52.364;9.910;2023-02-15T08:36:38;101987.17;;;3.05;87.99
55733;BME280;41637;52.364;9.910;2023-02-15T08:39:05;101982.27;;;3.11;87.64
55733;BME280;41637;52.364;9.910;2023-02-15T08:41:34;101980.66;;;3.20;88.00
55733;BME280;41637;52.364;9.910;2023-02-15T08:44:05;101988.08;;;3.30;87.95
55733;BME280;41637;52.364;9.910;2023-02-15T08:46:34;101985.85;;;3.40;87.19
55733;BME280;41637;52.364;9.910;2023-02-15T08:49:02;101978.55;;;3.51;87.01
55733;BME280;41637;52.364;9.910;2023-02-15T08:51:31;101973.20;;;3.61;86.64
55733;BME280;41637;52.364;9.910;2023-02-15T08:54:01;101970.55;;;3.69;85.83
55733;BME280;41637;52.364;9.910;2023-02-15T08:56:33;101969.23;;;3.76;85.30
55733;BME280;41637;52.364;9.910;2023-02-15T08:59:00;101966.13;;;3.81;84.55
55733;BME280;41637;52.364;9.910;2023-02-15T09:01:30;101960.64;;;3.85;84.21
55733;BME280;41637;52.364;9.910;2023-02-15T09:04:07;101960.74;;;3.94;84.55
55733;BME280;41637;52.364;9.910;2023-02-15T09:06:39;101962.45;;;3.97;83.62
55733;BME280;41637;52.364;9.910;2023-02-15T09:09:07;101962.48;;;4.02;83.64
55733;BME280;41637;52.364;9.910;2023-02-15T09:11:39;101958.68;;;4.06;83.08
55733;BME280;41637;52.364;9.910;2023-02-15T09:14:08;101960.54;;;4.13;82.81
55733;BME280;41637;52.364;9.910;2023-02-15T09:16:37;101962.67;;;4.18;82.36
55733;BME280;41637;52.364;9.910;2023-02-15T09:19:05;101964.84;;;4.25;82.25
55733;BME280;41637;52.364;9.910;2023-02-15T09:21:35;101964.79;;;4.30;81.92
55733;BME280;41637;52.364;9.910;2023-02-15T09:24:04;101965.80;;;4.39;81.66
55733;BME280;41637;52.364;9.910;2023-02-15T09:26:33;101961.41;;;4.49;82.14
55733;BME280;41637;52.364;9.910;2023-02-15T09:29:01;101964.75;;;4.62;82.13
55733;BME280;41637;52.364;9.910;2023-02-15T09:31:32;101966.92;;;4.72;81.40
55733;BME280;41637;52.364;9.910;2023-02-15T09:33:59;101968.61;;;4.77;80.46
55733;BME280;41637;52.364;9.910;2023-02-15T09:36:37;101965.52;;;4.74;78.66
55733;BME280;41637;52.364;9.910;2023-02-15T09:41:50;101965.56;;;4.74;78.25
55733;BME280;41637;52.364;9.910;2023-02-15T09:50:55;101963.05;;;4.97;78.19
55733;BME280;41637;52.364;9.910;2023-02-15T09:56:28;101958.89;;;5.11;77.44
55733;BME280;41637;52.364;9.910;2023-02-15T09:59:07;101961.13;;;5.19;76.97
55733;BME280;41637;52.364;9.910;2023-02-15T10:08:19;101951.70;;;5.41;76.86
55733;BME280;41637;52.364;9.910;2023-02-15T10:10:57;101952.11;;;5.48;76.05
55733;BME280;41637;52.364;9.910;2023-02-15T10:17:01;101950.05;;;5.61;76.19
55733;BME280;41637;52.364;9.910;2023-02-15T10:23:03;101952.09;;;5.77;75.35
55733;BME280;41637;52.364;9.910;2023-02-15T10:28:09;101948.86;;;5.97;74.54
55733;BME280;41637;52.364;9.910;2023-02-15T10:30:49;101943.71;;;6.07;74.71
55733;BME280;41637;52.364;9.910;2023-02-15T10:33:40;101946.52;;;6.24;75.13
55733;BME280;41637;52.364;9.910;2023-02-15T10:39:07;101947.46;;;6.42;72.27
55733;BME280;41637;52.364;9.910;2023-02-15T10:50:03;101945.55;;;6.78;72.17
55733;BME280;41637;52.364;9.910;2023-02-15T10:52:58;101944.67;;;6.85;70.90
55733;BME280;41637;52.364;9.910;2023-02-15T10:55:47;101943.73;;;6.97;71.15
55733;BME280;41637;52.364;9.910;2023-02-15T11:01:18;101941.20;;;7.16;70.15
55733;BME280;41637;52.364;9.910;2023-02-15T11:06:59;101935.35;;;7.41;70.79
55733;BME280;41637;52.364;9.910;2023-02-15T11:09:41;101933.61;;;7.51;70.62
55733;BME280;41637;52.364;9.910;2023-02-15T11:12:22;101927.48;;;7.64;70.34
55733;BME280;41637;52.364;9.910;2023-02-15T11:16:12;101924.33;;;7.72;69.50
55733;BME280;41637;52.364;9.910;2023-02-15T11:20:50;101915.77;;;7.88;69.33
55733;BME280;41637;52.364;9.910;2023-02-15T11:23:21;101910.36;;;7.94;68.90
55733;BME280;41637;52.364;9.910;2023-02-15T11:25:55;101909.16;;;7.98;68.68
55733;BME280;41637;52.364;9.910;2023-02-15T11:28:31;101900.40;;;8.04;68.54
55733;BME280;41637;52.364;9.910;2023-02-15T11:31:19;101899.30;;;8.06;67.68
55733;BME280;41637;52.364;9.910;2023-02-15T11:33:55;101899.01;;;8.12;67.67
55733;BME280;41637;52.364;9.910;2023-02-15T11:36:28;101900.70;;;8.08;67.10
55733;BME280;41637;52.364;9.910;2023-02-15T11:39:02;101901.06;;;8.04;66.93
55733;BME280;41637;52.364;9.910;2023-02-15T11:41:36;101901.65;;;8.08;67.81
55733;BME280;41637;52.364;9.910;2023-02-15T11:44:17;101900.96;;;8.20;68.08
55733;BME280;41637;52.364;9.910;2023-02-15T11:46:45;101902.63;;;8.38;67.07
55733;BME280;41637;52.364;9.910;2023-02-15T11:49:22;101906.77;;;8.48;65.47
55733;BME280;41637;52.364;9.910;2023-02-15T11:51:50;101905.93;;;8.61;66.11
55733;BME280;41637;52.364;9.910;2023-02-15T11:54:23;101896.00;;;8.85;65.68
55733;BME280;41637;52.364;9.910;2023-02-15T11:56:52;101891.77;;;9.17;63.90
55733;BME280;41637;52.364;9.910;2023-02-15T11:59:33;101882.11;;;9.51;63.15
55733;BME280;41637;52.364;9.910;2023-02-15T12:02:06;101882.32;;;10.11;62.56
55733;BME280;41637;52.364;9.910;2023-02-15T12:04:43;101880.28;;;10.65;60.57
55733;BME280;41637;52.364;9.910;2023-02-15T12:08:19;101877.48;;;11.07;58.88
55733;BME280;41637;52.364;9.910;2023-02-15T12:10:28;101876.98;;;11.61;56.65
55733;BME280;41637;52.364;9.910;2023-02-15T12:13:18;101873.23;;;12.09;56.02
55733;BME280;41637;52.364;9.910;2023-02-15T12:15:50;101874.12;;;12.78;55.36
55733;BME280;41637;52.364;9.910;2023-02-15T12:18:46;101869.45;;;13.46;53.19
55733;BME280;41637;52.364;9.910;2023-02-15T12:21:34;101866.69;;;14.05;50.00
55733;BME280;41637;52.364;9.910;2023-02-15T12:24:20;101862.38;;;14.50;48.94
55733;BME280;41637;52.364;9.910;2023-02-15T12:27:04;101864.48;;;15.07;47.57
55733;BME280;41637;52.364;9.910;2023-02-15T12:29:46;101865.88;;;15.48;45.78
55733;BME280;41637;52.364;9.910;2023-02-15T12:32:35;101861.91;;;15.91;45.81
55733;BME280;41637;52.364;9.910;2023-02-15T12:35:13;101859.48;;;16.32;44.19
55733;BME280;41637;52.364;9.910;2023-02-15T12:37:52;101858.52;;;16.66;42.95
55733;BME280;41637;52.364;9.910;2023-02-15T12:40:26;101859.30;;;16.81;41.80
55733;BME280;41637;52.364;9.910;2023-02-15T12:42:57;101850.08;;;17.17;41.72
55733;BME280;41637;52.364;9.910;2023-02-15T12:45:26;101843.02;;;17.61;40.25
55733;BME280;41637;52.364;9.910;2023-02-15T12:50:40;101844.91;;;18.72;37.46
55733;BME280;41637;52.364;9.910;2023-02-15T12:58:22;101845.11;;;19.69;35.54
55733;BME280;41637;52.364;9.910;2023-02-15T13:04:51;101838.59;;;19.98;34.90
55733;BME280;41637;52.364;9.910;2023-02-15T13:06:48;101834.75;;;20.34;34.58
55733;BME280;41637;52.364;9.910;2023-02-15T13:12:14;101834.03;;;20.78;33.75
55733;BME280;41637;52.364;9.910;2023-02-15T13:14:48;101830.52;;;21.12;33.08
55733;BME280;41637;52.364;9.910;2023-02-15T13:21:11;101822.41;;;21.70;31.37
55733;BME280;41637;52.364;9.910;2023-02-15T13:23:44;101813.10;;;21.88;31.21
55733;BME280;41637;52.364;9.910;2023-02-15T13:26:18;101813.41;;;22.10;30.38
55733;BME280;41637;52.364;9.910;2023-02-15T13:28:48;101800.42;;;22.32;30.20
55733;BME280;41637;52.364;9.910;2023-02-15T13:31:19;101801.28;;;22.73;30.17
55733;BME280;41637;52.364;9.910;2023-02-15T13:34:10;101809.54;;;23.17;29.99
55733;BME280;41637;52.364;9.910;2023-02-15T13:39:30;101792.86;;;23.74;29.02
55733;BME280;41637;52.364;9.910;2023-02-15T13:44:58;101787.58;;;22.74;29.00
55733;BME280;41637;52.364;9.910;2023-02-15T13:47:40;101792.66;;;22.08;29.60
55733;BME280;41637;52.364;9.910;2023-02-15T13:50:25;101789.09;;;22.06;30.35
55733;BME280;41637;52.364;9.910;2023-02-15T14:01:19;101781.30;;;22.68;29.80
55733;BME280;41637;52.364;9.910;2023-02-15T14:06:47;101776.73;;;22.96;29.44
55733;BME280;41637;52.364;9.910;2023-02-15T14:09:26;101773.34;;;22.94;29.78
55733;BME280;41637;52.364;9.910;2023-02-15T14:12:24;101776.74;;;22.63;30.63
55733;BME280;41637;52.364;9.910;2023-02-15T14:20:51;101764.90;;;21.96;30.67
55733;BME280;41637;52.364;9.910;2023-02-15T14:23:48;101763.35;;;21.52;32.06
55733;BME280;41637;52.364;9.910;2023-02-15T14:32:07;101764.86;;;20.06;33.50
55733;BME280;41637;52.364;9.910;2023-02-15T14:34:46;101767.55;;;19.52;34.51
55733;BME280;41637;52.364;9.910;2023-02-15T14:37:21;101767.02;;;19.39;35.18
55733;BME280;41637;52.364;9.910;2023-02-15T14:40:11;101763.79;;;19.28;35.11
55733;BME280;41637;52.364;9.910;2023-02-15T14:43:08;101763.91;;;19.29;35.22
55733;BME280;41637;52.364;9.910;2023-02-15T14:48:22;101749.94;;;18.67;35.97
55733;BME280;41637;52.364;9.910;2023-02-15T14:50:52;101752.33;;;18.51;36.24
55733;BME280;41637;52.364;9.910;2023-02-15T14:56:06;101750.30;;;17.91;36.97
55733;BME280;41637;52.364;9.910;2023-02-15T15:01:16;101750.16;;;17.57;38.05
55733;BME280;41637;52.364;9.910;2023-02-15T15:03:53;101748.89;;;17.52;38.05
55733;BME280;41637;52.364;9.910;2023-02-15T15:06:29;101746.83;;;17.32;38.21
55733;BME280;41637;52.364;9.910;2023-02-15T15:11:49;101752.02;;;16.79;39.07
55733;BME280;41637;52.364;9.910;2023-02-15T15:17:00;101750.52;;;16.61;40.14
55733;BME280;41637;52.364;9.910;2023-02-15T15:22:25;101752.61;;;16.79;40.16
55733;BME280;41637;52.364;9.910;2023-02-15T15:25:00;101747.56;;;16.98;39.78
55733;BME280;41637;52.364;9.910;2023-02-15T15:41:16;101751.30;;;17.67;37.96
55733;BME280;41637;52.364;9.910;2023-02-15T15:49:19;101750.02;;;16.05;40.00
55733;BME280;41637;52.364;9.910;2023-02-15T15:51:47;101747.84;;;15.32;41.19
55733;BME280;41637;52.364;9.910;2023-02-15T15:54:22;101743.84;;;14.61;42.60